createdAt,value
2016-11-05T11:51:48.139Z,9.65
2016-11-05T11:52:28.663Z,9.64
2016-11-05T11:53:09.177Z,9.66
2016-11-05T11:53:49.683Z,9.65
2016-11-05T11:54:30.209Z,9.71
2016-11-05T11:55:10.736Z,9.61
2016-11-05T11:55:51.286Z,9.61
2016-11-05T11:56:31.790Z,9.6
2016-11-05T11:57:12.300Z,9.58
2016-11-05T11:57:52.832Z,9.58
2016-11-05T11:58:33.370Z,9.58
2016-11-05T11:59:13.882Z,9.6
2016-11-05T11:59:54.412Z,9.6
2016-11-05T12:00:34.961Z,9.6
2016-11-05T12:01:15.505Z,9.6
2016-11-05T12:01:56.063Z,9.66
2016-11-05T12:02:36.590Z,9.57
2016-11-05T12:03:17.137Z,9.58
2016-11-05T12:03:57.666Z,9.57
2016-11-05T12:04:38.192Z,9.5
2016-11-05T12:05:18.729Z,9.51
2016-11-05T12:05:59.250Z,9.48
2016-11-05T12:06:39.775Z,9.6
2016-11-05T12:07:20.306Z,9.5
2016-11-05T12:08:00.883Z,9.53
2016-11-05T12:08:41.431Z,9.57
2016-11-05T12:09:21.950Z,9.61
2016-11-05T12:10:02.466Z,9.47
2016-11-05T12:10:42.985Z,9.53
2016-11-05T12:11:23.504Z,9.51
2016-11-05T12:12:04.023Z,9.6
2016-11-05T12:12:44.603Z,9.58
2016-11-05T12:13:25.121Z,9.5
2016-11-05T12:14:05.655Z,9.58
2016-11-05T12:14:46.190Z,9.53
2016-11-05T12:15:26.697Z,9.56
2016-11-05T12:16:07.247Z,9.51
2016-11-05T12:16:47.776Z,9.58
2016-11-05T12:17:28.282Z,9.66
2016-11-05T12:18:08.809Z,9.61
2016-11-05T12:18:49.338Z,9.56
2016-11-05T12:19:29.891Z,9.5
2016-11-05T12:20:10.422Z,9.54
2016-11-05T12:20:50.951Z,9.58
2016-11-05T12:21:31.480Z,9.56
2016-11-05T12:22:11.994Z,9.6
2016-11-05T12:22:52.522Z,9.56
2016-11-05T12:23:33.083Z,9.6
2016-11-05T12:24:13.621Z,9.48
2016-11-05T12:24:54.145Z,9.58
2016-11-05T12:25:34.688Z,9.6
2016-11-05T12:26:15.220Z,9.64
2016-11-05T12:26:55.801Z,9.58
2016-11-05T12:27:36.363Z,9.53
2016-11-05T12:28:16.912Z,9.5
2016-11-05T12:28:57.439Z,9.5
2016-11-05T12:29:37.966Z,9.43
2016-11-05T12:30:18.510Z,9.57
2016-11-05T12:30:59.055Z,9.51
2016-11-05T12:31:39.600Z,9.56
2016-11-05T12:32:20.111Z,9.54
2016-11-05T12:33:00.628Z,9.51
2016-11-05T12:33:41.174Z,9.58
2016-11-05T12:34:21.714Z,9.5
2016-11-05T12:35:02.237Z,9.56
2016-11-05T12:35:42.758Z,9.51
2016-11-05T12:36:23.285Z,9.57
2016-11-05T12:37:03.800Z,9.53
2016-11-05T12:37:44.336Z,9.58
2016-11-05T12:38:24.837Z,9.51
2016-11-05T12:39:05.365Z,9.56
2016-11-05T12:39:45.888Z,9.6
2016-11-05T12:40:26.424Z,9.58
2016-11-05T12:41:06.957Z,9.69
2016-11-05T12:41:47.492Z,9.57
2016-11-05T12:42:28.024Z,9.65
2016-11-05T12:43:08.558Z,9.61
2016-11-05T12:43:49.086Z,9.61
2016-11-05T12:44:29.639Z,9.65
2016-11-05T12:45:10.186Z,9.57
2016-11-05T12:45:50.764Z,9.61
2016-11-05T12:46:31.294Z,9.71
2016-11-05T12:47:11.838Z,9.64
2016-11-05T12:47:52.355Z,9.64
2016-11-05T12:48:32.884Z,9.68
2016-11-05T12:49:13.434Z,9.6
2016-11-05T12:49:53.963Z,9.65
2016-11-05T12:50:34.495Z,9.68
2016-11-05T12:51:15.092Z,9.57
2016-11-05T12:51:55.667Z,9.6
2016-11-05T12:52:36.214Z,9.68
2016-11-05T12:53:16.755Z,9.56
2016-11-05T12:53:57.275Z,9.61
2016-11-05T12:54:37.821Z,9.57
2016-11-05T12:55:18.371Z,9.66
2016-11-05T12:55:58.915Z,9.57
2016-11-05T12:56:39.425Z,9.61
2016-11-05T12:57:19.949Z,9.66
2016-11-05T12:58:00.487Z,9.58
2016-11-05T12:58:41.018Z,9.56
2016-11-05T12:59:21.535Z,9.68
2016-11-05T13:00:02.092Z,9.61
2016-11-05T13:00:42.651Z,9.68
2016-11-05T13:01:23.178Z,9.72
2016-11-05T13:02:03.710Z,9.65
2016-11-05T13:02:44.227Z,9.72
2016-11-05T13:03:24.778Z,9.65
2016-11-05T13:04:05.294Z,9.61
2016-11-05T13:04:45.830Z,9.65
2016-11-05T13:05:26.371Z,9.75
2016-11-05T13:06:06.897Z,9.76
2016-11-05T13:06:47.443Z,9.69
2016-11-05T13:07:27.973Z,9.79
2016-11-05T13:08:08.566Z,9.74
2016-11-05T13:08:49.078Z,9.76
2016-11-05T13:09:29.666Z,9.74
2016-11-05T13:10:10.234Z,9.79
2016-11-05T13:10:50.834Z,9.76
2016-11-05T13:11:31.399Z,9.81
2016-11-05T13:12:11.931Z,9.75
2016-11-05T13:12:52.475Z,9.69
2016-11-05T13:13:33.032Z,9.74
2016-11-05T13:14:13.563Z,9.69
2016-11-05T13:14:54.107Z,9.78
2016-11-05T13:15:34.635Z,9.66
2016-11-05T13:16:15.150Z,9.66
2016-11-05T13:16:55.683Z,9.69
2016-11-05T13:17:36.208Z,9.68
2016-11-05T13:18:16.766Z,9.61
2016-11-05T13:18:57.309Z,9.75
2016-11-05T13:19:37.845Z,9.65
2016-11-05T13:20:18.371Z,9.58
2016-11-05T13:20:58.899Z,9.66
2016-11-05T13:21:39.425Z,9.75
2016-11-05T13:22:20.015Z,9.75
2016-11-05T13:23:00.533Z,9.76
2016-11-05T13:23:41.079Z,9.74
2016-11-05T13:24:21.626Z,9.78
2016-11-05T13:25:02.157Z,9.79
2016-11-05T13:25:42.710Z,9.78
2016-11-05T13:26:23.245Z,9.76
2016-11-05T13:27:03.804Z,9.76
2016-11-05T13:27:44.365Z,9.78
2016-11-05T13:28:24.895Z,9.76
2016-11-05T13:29:05.463Z,9.72
2016-11-05T13:29:46.009Z,9.78
2016-11-05T13:30:26.565Z,9.83
2016-11-05T13:31:07.096Z,9.78
2016-11-05T13:31:47.639Z,9.74
2016-11-05T13:32:28.173Z,9.74
2016-11-05T13:33:08.709Z,9.87
2016-11-05T13:33:49.256Z,9.75
2016-11-05T13:34:29.794Z,9.72
2016-11-05T13:35:10.360Z,9.72
2016-11-05T13:35:50.875Z,9.79
2016-11-05T13:36:31.420Z,9.83
2016-11-05T13:37:12.036Z,9.91
2016-11-05T13:37:52.568Z,9.84
2016-11-05T13:38:33.091Z,9.87
2016-11-05T13:39:13.612Z,9.9
2016-11-05T13:39:54.141Z,9.86
2016-11-05T13:40:34.667Z,9.93
2016-11-05T13:41:15.185Z,9.96
2016-11-05T13:41:55.723Z,10.05
2016-11-05T13:42:36.255Z,10.07
2016-11-05T13:43:16.782Z,10.04
2016-11-05T13:43:57.317Z,10.08
2016-11-05T13:44:37.850Z,10.08
2016-11-05T13:45:18.375Z,10.12
2016-11-05T13:45:58.904Z,10.15
2016-11-05T13:46:39.439Z,10.18
2016-11-05T13:47:19.983Z,10.17
2016-11-05T13:48:00.535Z,10.15
2016-11-05T13:48:41.066Z,10.2
2016-11-05T13:49:21.600Z,10.18
2016-11-05T13:50:02.138Z,10.17
2016-11-05T13:50:42.670Z,10.15
2016-11-05T13:51:23.200Z,10.08
2016-11-05T13:52:03.758Z,10.11
2016-11-05T13:52:44.289Z,10.14
2016-11-05T13:53:24.840Z,10.07
2016-11-05T13:54:05.382Z,10.07
2016-11-05T13:54:45.918Z,10.09
2016-11-05T13:55:26.452Z,10.11
2016-11-05T13:56:06.999Z,10.09
2016-11-05T13:56:47.537Z,10.14
2016-11-05T13:57:28.059Z,10.09
2016-11-05T13:58:08.593Z,10.08
2016-11-05T13:58:49.115Z,10.07
2016-11-05T13:59:29.662Z,10.05
2016-11-05T14:00:10.206Z,10.02
2016-11-05T14:00:50.715Z,10.02
2016-11-05T14:01:31.235Z,10.11
2016-11-05T14:02:11.763Z,10.05
2016-11-05T14:02:52.291Z,10.11
2016-11-05T14:03:32.823Z,10.15
2016-11-05T14:04:13.362Z,10.22
2016-11-05T14:04:53.902Z,10.18
2016-11-05T14:05:34.497Z,10.22
2016-11-05T14:06:15.036Z,10.22
2016-11-05T14:06:55.616Z,10.23
2016-11-05T14:07:36.146Z,10.18
2016-11-05T14:08:16.657Z,10.18
2016-11-05T14:08:57.211Z,10.18
2016-11-05T14:09:37.735Z,10.2
2016-11-05T14:10:18.314Z,10.22
2016-11-05T14:10:58.843Z,10.22
2016-11-05T14:11:39.383Z,10.18
2016-11-05T14:12:19.905Z,10.22
2016-11-05T14:13:00.420Z,10.32
2016-11-05T14:13:40.947Z,10.3
2016-11-05T14:14:21.477Z,10.33
2016-11-05T14:15:02.011Z,10.32
2016-11-05T14:15:42.621Z,10.4
2016-11-05T14:16:23.191Z,10.36
2016-11-05T14:17:03.730Z,10.38
2016-11-05T14:17:44.296Z,10.4
2016-11-05T14:18:24.823Z,10.45
2016-11-05T14:19:05.343Z,10.45
2016-11-05T14:19:45.883Z,10.36
2016-11-05T14:20:26.406Z,10.38
2016-11-05T14:21:06.951Z,10.41
2016-11-05T14:21:47.470Z,10.36
2016-11-05T14:22:27.985Z,10.3
2016-11-05T14:23:08.515Z,10.3
2016-11-05T14:23:49.059Z,10.26
2016-11-05T14:24:29.594Z,10.26
2016-11-05T14:25:10.193Z,10.27
2016-11-05T14:25:50.725Z,10.29
2016-11-05T14:26:31.267Z,10.18
2016-11-05T14:27:11.819Z,10.29
2016-11-05T14:27:52.361Z,10.26
2016-11-05T14:28:32.925Z,10.25
2016-11-05T14:29:13.463Z,10.22
2016-11-05T14:29:53.987Z,10.23
2016-11-05T14:30:34.513Z,10.25
2016-11-05T14:31:15.025Z,10.27
2016-11-05T14:31:55.546Z,10.3
2016-11-05T14:32:36.096Z,10.22
2016-11-05T14:33:16.611Z,10.26
2016-11-05T14:33:57.118Z,10.27
2016-11-05T14:34:37.679Z,10.23
2016-11-05T14:35:18.209Z,10.2
2016-11-05T14:35:58.739Z,10.22
2016-11-05T14:36:39.254Z,10.18
2016-11-05T14:37:19.839Z,10.18
2016-11-05T14:38:00.359Z,10.18
2016-11-05T14:38:40.896Z,10.2
2016-11-05T14:39:21.441Z,10.17
2016-11-05T14:40:02.012Z,10.18
2016-11-05T14:40:42.550Z,10.15
2016-11-05T14:41:23.085Z,10.14
2016-11-05T14:42:03.620Z,10.09
2016-11-05T14:42:44.149Z,10.09
2016-11-05T14:43:24.729Z,10.08
2016-11-05T14:44:05.253Z,10.08
2016-11-05T14:44:45.772Z,10.11
2016-11-05T14:45:26.300Z,10.01
2016-11-05T14:46:06.839Z,10.08
2016-11-05T14:46:47.366Z,10.12
2016-11-05T14:47:27.922Z,10.04
2016-11-05T14:48:08.457Z,10.08
2016-11-05T14:48:48.971Z,10.02
2016-11-05T14:49:29.491Z,10.07
2016-11-05T14:50:10.009Z,10.09
2016-11-05T14:50:50.527Z,10.01
2016-11-05T14:51:31.070Z,10.01
2016-11-05T14:52:11.595Z,10.01
2016-11-05T14:52:52.125Z,10.11
2016-11-05T14:53:32.647Z,10.08
2016-11-05T14:54:13.178Z,10.05
2016-11-05T14:54:53.715Z,10.08
2016-11-05T14:55:34.255Z,10.04
2016-11-05T14:56:14.805Z,10.01
2016-11-05T14:56:55.347Z,10.08
2016-11-05T14:57:35.886Z,10.12
2016-11-05T14:58:16.414Z,10.12
2016-11-05T14:58:56.964Z,10.15
2016-11-05T14:59:37.511Z,10.2
2016-11-05T15:00:18.081Z,10.23
2016-11-05T15:00:58.610Z,10.22
2016-11-05T15:01:39.143Z,10.27
2016-11-05T15:02:19.673Z,10.23
2016-11-05T15:03:00.281Z,10.32
2016-11-05T15:03:40.814Z,10.29
2016-11-05T15:04:21.372Z,10.23
2016-11-05T15:05:01.933Z,10.27
2016-11-05T15:05:42.504Z,10.22
2016-11-05T15:06:23.034Z,10.22
2016-11-05T15:07:03.588Z,10.2
2016-11-05T15:07:44.140Z,10.17
2016-11-05T15:08:24.721Z,10.15
2016-11-05T15:09:05.330Z,10.15
2016-11-05T15:09:45.934Z,10.14
2016-11-05T15:10:26.570Z,10.12
2016-11-05T15:11:07.265Z,10.12
2016-11-05T15:11:47.791Z,10.05
2016-11-05T15:12:28.306Z,10.04
2016-11-05T15:13:08.838Z,10.05
2016-11-05T15:13:49.364Z,10.04
2016-11-05T15:14:29.933Z,9.97
2016-11-05T15:15:10.582Z,9.97
2016-11-05T15:15:51.094Z,9.89
2016-11-05T15:16:31.736Z,9.94
2016-11-05T15:17:12.466Z,9.87
2016-11-05T15:17:52.973Z,9.84
2016-11-05T15:18:33.505Z,9.89
2016-11-05T15:19:14.048Z,9.79
2016-11-05T15:19:54.572Z,9.87
2016-11-05T15:20:35.206Z,9.84
2016-11-05T15:21:15.831Z,9.79
2016-11-05T15:21:56.282Z,9.78
2016-11-05T15:22:36.785Z,9.76
2016-11-05T15:23:17.325Z,9.81
2016-11-05T15:23:57.857Z,9.81
2016-11-05T15:24:38.374Z,9.81
2016-11-05T15:25:18.916Z,9.75
2016-11-05T15:25:59.423Z,9.72
2016-11-05T15:26:39.957Z,9.83
2016-11-05T15:27:20.464Z,9.72
2016-11-05T15:28:00.994Z,9.75
2016-11-05T15:28:41.536Z,9.81
2016-11-05T15:29:22.062Z,9.87
2016-11-05T15:30:02.592Z,9.86
2016-11-05T15:30:43.118Z,9.87
2016-11-05T15:31:23.636Z,9.89
2016-11-05T15:32:04.160Z,9.89
2016-11-05T15:32:44.670Z,9.87
2016-11-05T15:33:25.207Z,9.96
2016-11-05T15:34:05.745Z,9.9
2016-11-05T15:34:46.277Z,9.93
2016-11-05T15:35:26.802Z,9.87
2016-11-05T15:36:07.321Z,9.89
2016-11-05T15:36:47.861Z,9.91
2016-11-05T15:37:28.380Z,9.94
2016-11-05T15:38:08.893Z,9.94
2016-11-05T15:38:49.413Z,9.96
2016-11-05T15:39:29.949Z,10.02
2016-11-05T15:40:10.460Z,9.99
2016-11-05T15:40:50.992Z,9.91
2016-11-05T15:41:31.518Z,9.97
2016-11-05T15:42:12.039Z,9.87
2016-11-05T15:42:52.561Z,9.87
2016-11-05T15:43:33.092Z,9.91
2016-11-05T15:44:13.617Z,9.91
2016-11-05T15:44:54.137Z,9.87
2016-11-05T15:45:34.663Z,9.89
2016-11-05T15:46:15.197Z,9.94
2016-11-05T15:46:55.721Z,9.93
2016-11-05T15:47:36.261Z,9.9
2016-11-05T15:48:16.792Z,9.9
2016-11-05T15:48:57.332Z,9.86
2016-11-05T15:49:37.867Z,9.9
2016-11-05T15:50:18.402Z,9.79
2016-11-05T15:50:58.942Z,9.76
2016-11-05T15:51:39.490Z,9.81
2016-11-05T15:52:20.005Z,9.83
2016-11-05T15:53:00.539Z,9.75
2016-11-05T15:53:41.054Z,9.76
2016-11-05T15:54:21.574Z,9.78
2016-11-05T15:55:02.097Z,9.64
2016-11-05T15:55:42.655Z,9.61
2016-11-05T15:56:23.172Z,9.65
2016-11-05T15:57:03.701Z,9.69
2016-11-05T15:57:44.277Z,9.72
2016-11-05T15:58:24.860Z,9.6
2016-11-05T15:59:05.378Z,9.65
2016-11-05T15:59:45.920Z,9.64
2016-11-05T16:00:26.437Z,9.51
2016-11-05T16:01:06.968Z,9.53
2016-11-05T16:01:47.478Z,9.53
2016-11-05T16:02:27.997Z,9.5
2016-11-05T16:03:08.514Z,9.53
2016-11-05T16:03:49.037Z,9.51
2016-11-05T16:04:29.571Z,9.5
2016-11-05T16:05:10.101Z,9.48
2016-11-05T16:05:50.627Z,9.46
2016-11-05T16:06:31.156Z,9.5
2016-11-05T16:07:11.677Z,9.36
2016-11-05T16:07:52.200Z,9.43
2016-11-05T16:08:32.738Z,9.46
2016-11-05T16:09:13.268Z,9.46
2016-11-05T16:09:53.797Z,9.42
2016-11-05T16:10:34.295Z,9.36
2016-11-05T16:11:14.835Z,9.42
2016-11-05T16:11:55.369Z,9.33
2016-11-05T16:12:36.812Z,9.31
2016-11-05T16:13:17.331Z,9.29
2016-11-05T16:13:57.835Z,9.24
2016-11-05T16:14:38.491Z,9.21
2016-11-05T16:15:19.017Z,9.23
2016-11-05T16:15:59.542Z,9.13
2016-11-05T16:16:40.046Z,9.02
2016-11-05T16:17:20.584Z,8.96
2016-11-05T16:18:01.242Z,8.92
2016-11-05T16:18:41.818Z,8.83
2016-11-05T16:19:22.351Z,8.84
2016-11-05T16:20:02.883Z,8.66
2016-11-05T16:20:43.401Z,8.61
2016-11-05T16:21:23.927Z,8.59
2016-11-05T16:22:04.521Z,8.53
2016-11-05T16:22:45.097Z,8.52
2016-11-05T16:23:25.620Z,8.45
2016-11-05T16:24:06.159Z,8.41
2016-11-05T16:24:46.672Z,8.29
2016-11-05T16:25:27.191Z,8.28
2016-11-05T16:26:07.786Z,8.28
2016-11-05T16:26:48.316Z,8.29
2016-11-05T16:27:28.859Z,8.19
2016-11-05T16:28:09.386Z,8.2
2016-11-05T16:28:49.925Z,8.11
2016-11-05T16:29:30.446Z,8.22
2016-11-05T16:30:10.970Z,8.05
2016-11-05T16:30:51.518Z,8.12
2016-11-05T16:31:32.050Z,8.12
2016-11-05T16:32:12.582Z,8.07
2016-11-05T16:32:53.104Z,8.05
2016-11-05T16:33:33.628Z,8.08
2016-11-05T16:34:14.155Z,7.95
2016-11-05T16:34:54.687Z,8.07
2016-11-05T16:35:35.209Z,7.98
2016-11-05T16:36:15.730Z,7.89
2016-11-05T16:36:56.265Z,7.85
2016-11-05T16:37:36.809Z,7.8
2016-11-05T16:38:17.344Z,7.8
2016-11-05T16:38:57.898Z,7.79
2016-11-05T16:39:38.416Z,7.69
2016-11-05T16:40:18.941Z,7.69
2016-11-05T16:40:59.484Z,7.74
2016-11-05T16:41:40.011Z,7.6
2016-11-05T16:42:20.546Z,7.58
2016-11-05T16:43:01.096Z,7.57
2016-11-05T16:43:41.602Z,7.5
2016-11-05T16:44:22.121Z,7.5
2016-11-05T16:45:02.634Z,7.46
2016-11-05T16:45:43.151Z,7.27
2016-11-05T16:46:23.673Z,7.3
2016-11-05T16:47:04.201Z,7.2
2016-11-05T16:47:44.741Z,7.21
2016-11-05T16:48:25.268Z,7.21
2016-11-05T16:49:05.798Z,7.16
2016-11-05T16:49:46.338Z,7.21
2016-11-05T16:50:26.857Z,7.15
2016-11-05T16:51:07.387Z,7.13
2016-11-05T16:51:47.920Z,7.2
2016-11-05T16:52:28.457Z,7.09
2016-11-05T16:53:08.991Z,7.05
2016-11-05T16:53:49.510Z,7.12
2016-11-05T16:54:30.048Z,7.09
2016-11-05T16:55:10.596Z,6.98
2016-11-05T16:55:51.179Z,6.91
2016-11-05T16:56:31.704Z,6.91
2016-11-05T16:57:12.233Z,6.88
2016-11-05T16:57:52.761Z,6.84
2016-11-05T16:58:33.286Z,6.79
2016-11-05T16:59:13.810Z,6.85
2016-11-05T16:59:54.333Z,6.76
2016-11-05T17:00:34.860Z,6.74
2016-11-05T17:01:15.379Z,6.74
2016-11-05T17:01:55.927Z,6.73
2016-11-05T17:02:36.464Z,6.71
2016-11-05T17:03:16.994Z,6.7
2016-11-05T17:03:57.517Z,6.69
2016-11-05T17:04:38.036Z,6.61
2016-11-05T17:05:18.567Z,6.61
2016-11-05T17:05:59.083Z,6.59
2016-11-05T17:06:39.616Z,6.62
2016-11-05T17:07:20.142Z,6.55
2016-11-05T17:08:00.664Z,6.54
2016-11-05T17:08:41.194Z,6.48
2016-11-05T17:09:21.730Z,6.55
2016-11-05T17:10:02.251Z,6.52
2016-11-05T17:10:42.808Z,6.44
2016-11-05T17:11:23.310Z,6.54
2016-11-05T17:12:03.856Z,6.52
2016-11-05T17:12:44.383Z,6.44
2016-11-05T17:13:24.917Z,6.34
2016-11-05T17:14:05.428Z,6.38
2016-11-05T17:14:45.948Z,6.43
2016-11-05T17:15:26.461Z,6.43
2016-11-05T17:16:06.997Z,6.38
2016-11-05T17:16:47.534Z,6.4
2016-11-05T17:17:28.057Z,6.37
2016-11-05T17:18:08.562Z,6.37
2016-11-05T17:18:49.102Z,6.34
2016-11-05T17:19:29.620Z,6.31
2016-11-05T17:20:10.168Z,6.27
2016-11-05T17:20:50.701Z,6.36
2016-11-05T17:21:31.234Z,6.31
2016-11-05T17:22:11.759Z,6.4
2016-11-05T17:22:52.285Z,6.33
2016-11-05T17:23:32.825Z,6.38
2016-11-05T17:24:13.352Z,6.4
2016-11-05T17:24:53.848Z,6.43
2016-11-05T17:25:34.358Z,6.3
2016-11-05T17:26:14.861Z,6.38
2016-11-05T17:26:55.422Z,6.31
2016-11-05T17:27:35.951Z,6.33
2016-11-05T17:28:16.471Z,6.36
2016-11-05T17:28:57.012Z,6.33
2016-11-05T17:29:37.545Z,6.36
2016-11-05T17:30:18.080Z,6.19
2016-11-05T17:30:58.616Z,6.27
2016-11-05T17:31:39.146Z,6.27
2016-11-05T17:32:19.675Z,6.27
2016-11-05T17:33:00.201Z,6.21
2016-11-05T17:33:40.731Z,6.25
2016-11-05T17:34:21.261Z,6.36
2016-11-05T17:35:01.791Z,6.28
2016-11-05T17:35:42.317Z,6.21
2016-11-05T17:36:22.870Z,6.27
2016-11-05T17:37:03.412Z,6.28
2016-11-05T17:37:43.963Z,6.21
2016-11-05T17:38:24.473Z,6.27
2016-11-05T17:39:04.997Z,6.21
2016-11-05T17:39:45.532Z,6.33
2016-11-05T17:40:26.044Z,6.27
2016-11-05T17:41:06.572Z,6.3
2016-11-05T17:41:47.076Z,6.19
2016-11-05T17:42:27.631Z,6.22
2016-11-05T17:43:08.178Z,6.21
2016-11-05T17:43:48.712Z,6.27
2016-11-05T17:44:29.235Z,6.22
2016-11-05T17:45:09.757Z,6.14
2016-11-05T17:45:50.424Z,6.21
2016-11-05T17:46:30.953Z,6.17
2016-11-05T17:47:11.491Z,6.15
2016-11-05T17:47:52.029Z,6.12
2016-11-05T17:48:32.543Z,6.19
2016-11-05T17:49:13.076Z,6.21
2016-11-05T17:49:53.600Z,6.21
2016-11-05T17:50:34.275Z,6.22
2016-11-05T17:51:14.792Z,6.21
2016-11-05T17:51:55.321Z,6.21
2016-11-05T17:52:35.855Z,6.18
2016-11-05T17:53:16.378Z,6.25
2016-11-05T17:53:56.909Z,6.3
2016-11-05T17:54:37.435Z,6.31
2016-11-05T17:55:17.968Z,6.21
2016-11-05T17:55:58.495Z,6.28
2016-11-05T17:56:39.028Z,6.22
2016-11-05T17:57:19.558Z,6.27
2016-11-05T17:58:00.089Z,6.31
2016-11-05T17:58:40.617Z,6.3
2016-11-05T17:59:21.150Z,6.31
2016-11-05T18:00:01.682Z,6.34
2016-11-05T18:00:42.209Z,6.25
2016-11-05T18:01:22.754Z,6.3
2016-11-05T18:02:03.296Z,6.31
2016-11-05T18:02:43.803Z,6.36
2016-11-05T18:03:24.308Z,6.3
2016-11-05T18:04:04.846Z,6.33
2016-11-05T18:04:45.368Z,6.41
2016-11-05T18:05:25.884Z,6.37
2016-11-05T18:06:06.415Z,6.36
2016-11-05T18:06:46.955Z,6.4
2016-11-05T18:07:27.482Z,6.37
2016-11-05T18:08:08.008Z,6.41
2016-11-05T18:08:48.533Z,6.36
2016-11-05T18:09:29.069Z,6.3
2016-11-05T18:10:09.600Z,6.34
2016-11-05T18:10:50.139Z,6.41
2016-11-05T18:11:30.663Z,6.4
2016-11-05T18:12:11.177Z,6.41
2016-11-05T18:12:51.705Z,6.4
2016-11-05T18:13:32.231Z,6.41
2016-11-05T18:14:12.744Z,6.41
2016-11-05T18:14:53.276Z,6.44
2016-11-05T18:15:33.792Z,6.4
2016-11-05T18:16:14.337Z,6.38
2016-11-05T18:16:54.861Z,6.38
2016-11-05T18:17:35.421Z,6.46
2016-11-05T18:18:15.937Z,6.54
2016-11-05T18:18:56.474Z,6.58
2016-11-05T18:19:37.016Z,6.52
2016-11-05T18:20:17.550Z,6.51
2016-11-05T18:20:58.087Z,6.55
2016-11-05T18:21:38.609Z,6.54
2016-11-05T18:22:19.142Z,6.59
2016-11-05T18:22:59.665Z,6.61
2016-11-05T18:23:40.193Z,6.59
2016-11-05T18:24:20.712Z,6.64
2016-11-05T18:25:01.244Z,6.61
2016-11-05T18:25:41.773Z,6.64
2016-11-05T18:26:22.302Z,6.69
2016-11-05T18:27:02.840Z,6.71
2016-11-05T18:27:43.371Z,6.61
2016-11-05T18:28:23.886Z,6.71
2016-11-05T18:29:04.426Z,6.59
2016-11-05T18:29:44.966Z,6.71
2016-11-05T18:30:25.498Z,6.67
2016-11-05T18:31:06.011Z,6.7
2016-11-05T18:31:46.548Z,6.61
2016-11-05T18:32:27.084Z,6.71
2016-11-05T18:33:07.623Z,6.76
2016-11-05T18:33:48.144Z,6.76
2016-11-05T18:34:28.668Z,6.71
2016-11-05T18:35:09.186Z,6.77
2016-11-05T18:35:49.735Z,6.71
2016-11-05T18:36:30.245Z,6.73
2016-11-05T18:37:10.766Z,6.79
2016-11-05T18:37:51.306Z,6.77
2016-11-05T18:38:31.839Z,6.7
2016-11-05T18:39:12.368Z,6.8
2016-11-05T18:39:52.889Z,6.81
2016-11-05T18:40:33.401Z,6.87
2016-11-05T18:41:13.930Z,6.89
2016-11-05T18:41:54.457Z,6.76
2016-11-05T18:42:34.996Z,6.91
2016-11-05T18:43:15.527Z,6.77
2016-11-05T18:43:56.060Z,6.74
2016-11-05T18:44:36.636Z,6.74
2016-11-05T18:45:17.168Z,6.79
2016-11-05T18:45:57.707Z,6.89
2016-11-05T18:46:38.239Z,6.77
2016-11-05T18:47:18.786Z,6.87
2016-11-05T18:47:59.314Z,6.84
2016-11-05T18:48:39.830Z,6.85
2016-11-05T18:49:20.370Z,6.89
2016-11-05T18:50:00.901Z,6.79
2016-11-05T18:50:41.430Z,6.88
2016-11-05T18:51:21.943Z,6.91
2016-11-05T18:52:02.472Z,6.92
2016-11-05T18:52:43.009Z,6.95
2016-11-05T18:53:23.541Z,6.97
2016-11-05T18:54:04.040Z,6.95
2016-11-05T18:54:44.582Z,6.92
2016-11-05T18:55:25.118Z,6.98
2016-11-05T18:56:05.635Z,6.98
2016-11-05T18:56:46.152Z,6.97
2016-11-05T18:57:26.679Z,7.02
2016-11-05T18:58:07.211Z,7.1
2016-11-05T18:58:47.747Z,7.05
2016-11-05T18:59:28.282Z,7.13
2016-11-05T19:00:08.862Z,7.2
2016-11-05T19:00:49.401Z,7.1
2016-11-05T19:01:29.933Z,7.24
2016-11-05T19:02:10.473Z,7.12
2016-11-05T19:02:50.975Z,7.09
2016-11-05T19:03:31.484Z,7.23
2016-11-05T19:04:12.027Z,7.28
2016-11-05T19:04:52.550Z,7.2
2016-11-05T19:05:33.082Z,7.16
2016-11-05T19:06:13.616Z,7.21
2016-11-05T19:06:54.152Z,7.27
2016-11-05T19:07:34.696Z,7.34
2016-11-05T19:08:15.223Z,7.31
2016-11-05T19:08:55.748Z,7.3
2016-11-05T19:09:36.281Z,7.3
2016-11-05T19:10:16.813Z,7.27
2016-11-05T19:10:57.345Z,7.34
2016-11-05T19:11:37.884Z,7.3
2016-11-05T19:12:18.407Z,7.39
2016-11-05T19:12:58.926Z,7.46
2016-11-05T19:13:39.436Z,7.42
2016-11-05T19:14:19.948Z,7.34
2016-11-05T19:15:00.484Z,7.42
2016-11-05T19:15:41.049Z,7.46
2016-11-05T19:16:21.571Z,7.49
2016-11-05T19:17:02.102Z,7.43
2016-11-05T19:17:42.617Z,7.43
2016-11-05T19:18:23.131Z,7.39
2016-11-05T19:19:03.651Z,7.49
2016-11-05T19:19:44.192Z,7.46
2016-11-05T19:20:24.724Z,7.46
2016-11-05T19:21:05.249Z,7.43
2016-11-05T19:21:45.775Z,7.46
2016-11-05T19:22:26.306Z,7.39
2016-11-05T19:23:06.809Z,7.42
2016-11-05T19:23:47.335Z,7.46
2016-11-05T19:24:27.858Z,7.43
2016-11-05T19:25:08.397Z,7.46
2016-11-05T19:25:48.937Z,7.32
2016-11-05T19:26:29.464Z,7.4
2016-11-05T19:27:09.979Z,7.43
2016-11-05T19:27:50.516Z,7.39
2016-11-05T19:28:31.034Z,7.32
2016-11-05T19:29:11.571Z,7.39
2016-11-05T19:29:52.102Z,7.46
2016-11-05T19:30:32.627Z,7.43
2016-11-05T19:31:13.154Z,7.58
2016-11-05T19:31:53.668Z,7.55
2016-11-05T19:32:34.221Z,7.5
2016-11-05T19:33:14.730Z,7.55
2016-11-05T19:33:55.260Z,7.52
2016-11-05T19:34:35.776Z,7.52
2016-11-05T19:35:16.306Z,7.5
2016-11-05T19:35:56.832Z,7.58
2016-11-05T19:36:37.360Z,7.6
2016-11-05T19:37:17.892Z,7.74
2016-11-05T19:37:58.421Z,7.67
2016-11-05T19:38:38.950Z,7.67
2016-11-05T19:39:19.481Z,7.69
2016-11-05T19:40:00.019Z,7.68
2016-11-05T19:40:40.555Z,7.74
2016-11-05T19:41:21.094Z,7.69
2016-11-05T19:42:01.600Z,7.69
2016-11-05T19:42:42.130Z,7.68
2016-11-05T19:43:22.659Z,7.72
2016-11-05T19:44:03.201Z,7.69
2016-11-05T19:44:43.728Z,7.69
2016-11-05T19:45:24.240Z,7.68
2016-11-05T19:46:04.787Z,7.67
2016-11-05T19:46:45.323Z,7.67
2016-11-05T19:47:25.849Z,7.69
2016-11-05T19:48:06.370Z,7.64
2016-11-05T19:48:46.907Z,7.68
2016-11-05T19:49:27.465Z,7.72
2016-11-05T19:50:07.981Z,7.77
2016-11-05T19:50:48.507Z,7.77
2016-11-05T19:51:29.047Z,7.82
2016-11-05T19:52:09.566Z,7.77
2016-11-05T19:52:50.080Z,7.82
2016-11-05T19:53:30.608Z,7.75
2016-11-05T19:54:11.149Z,7.92
2016-11-05T19:54:51.671Z,7.93
2016-11-05T19:55:32.190Z,7.98
2016-11-05T19:56:12.710Z,7.9
2016-11-05T19:56:53.221Z,7.87
2016-11-05T19:57:33.763Z,7.92
2016-11-05T19:58:14.277Z,7.92
2016-11-05T19:58:54.790Z,7.92
2016-11-05T19:59:35.315Z,7.89
2016-11-05T20:00:15.842Z,7.89
2016-11-05T20:00:56.368Z,7.97
2016-11-05T20:01:36.914Z,7.93
2016-11-05T20:02:17.453Z,7.92
2016-11-05T20:02:57.956Z,7.95
2016-11-05T20:03:38.483Z,7.9
2016-11-05T20:04:19.006Z,7.92
2016-11-05T20:04:59.530Z,8.07
2016-11-05T20:05:40.034Z,7.9
2016-11-05T20:06:20.566Z,7.92
2016-11-05T20:07:01.084Z,7.98
2016-11-05T20:07:41.597Z,8
2016-11-05T20:08:22.138Z,7.93
2016-11-05T20:09:02.667Z,7.93
2016-11-05T20:09:43.195Z,7.92
2016-11-05T20:10:23.703Z,7.97
2016-11-05T20:11:04.227Z,8
2016-11-05T20:11:44.744Z,8
2016-11-05T20:12:25.281Z,8.08
2016-11-05T20:13:05.809Z,7.97
2016-11-05T20:13:46.315Z,7.95
2016-11-05T20:14:26.853Z,8.01
2016-11-05T20:15:07.390Z,7.95
2016-11-05T20:15:47.929Z,7.98
2016-11-05T20:16:28.449Z,7.95
2016-11-05T20:17:08.965Z,7.97
2016-11-05T20:17:49.485Z,7.98
2016-11-05T20:18:30.004Z,8.04
2016-11-05T20:19:10.541Z,8.01
2016-11-05T20:19:51.082Z,8.04
2016-11-05T20:20:31.609Z,7.95
2016-11-05T20:21:12.115Z,8.08
2016-11-05T20:21:52.636Z,8.08
2016-11-05T20:22:33.166Z,8.05
2016-11-05T20:23:13.706Z,8.12
2016-11-05T20:23:54.237Z,8.01
2016-11-05T20:24:34.774Z,8.11
2016-11-05T20:25:15.304Z,8.12
2016-11-05T20:25:55.853Z,8.08
2016-11-05T20:26:36.366Z,8.07
2016-11-05T20:27:16.888Z,8.07
2016-11-05T20:27:57.425Z,8.16
2016-11-05T20:28:37.976Z,8.1
2016-11-05T20:29:18.504Z,8.11
2016-11-05T20:29:59.036Z,8.08
2016-11-05T20:30:39.573Z,8.1
2016-11-05T20:31:20.109Z,8.11
2016-11-05T20:32:00.636Z,8.08
2016-11-05T20:32:41.177Z,8.1
2016-11-05T20:33:21.710Z,8.15
2016-11-05T20:34:02.248Z,8.07
2016-11-05T20:34:42.776Z,8.11
2016-11-05T20:35:23.304Z,8.07
2016-11-05T20:36:03.854Z,8.15
2016-11-05T20:36:44.379Z,8.05
2016-11-05T20:37:24.904Z,8.12
2016-11-05T20:38:05.447Z,8.05
2016-11-05T20:38:45.978Z,8.1
2016-11-05T20:39:26.512Z,8.07
2016-11-05T20:40:07.055Z,8.01
2016-11-05T20:40:47.586Z,7.95
2016-11-05T20:41:28.115Z,7.97
2016-11-05T20:42:08.647Z,7.97
2016-11-05T20:42:49.172Z,7.97
2016-11-05T20:43:29.692Z,7.93
2016-11-05T20:44:10.216Z,7.93
2016-11-05T20:44:50.729Z,8.02
2016-11-05T20:45:31.256Z,8.01
2016-11-05T20:46:11.784Z,7.95
2016-11-05T20:46:52.307Z,7.95
2016-11-05T20:47:32.846Z,8
2016-11-05T20:48:13.378Z,7.92
2016-11-05T20:48:53.890Z,7.93
2016-11-05T20:49:34.418Z,7.95
2016-11-05T20:50:14.957Z,8.01